createdAt,value
2018-09-06T00:00:08.604Z,96.19
2018-09-06T00:02:35.630Z,96.62
2018-09-06T00:05:02.833Z,96.63
2018-09-06T00:07:29.891Z,96.44
2018-09-06T00:09:56.886Z,96.73
2018-09-06T00:12:24.042Z,96.41
2018-09-06T00:14:51.316Z,96.67
2018-09-06T00:17:18.391Z,97.54
2018-09-06T00:19:45.463Z,97.78
2018-09-06T00:22:12.513Z,97.41
2018-09-06T00:24:39.587Z,97.17
2018-09-06T00:27:06.578Z,96.74
2018-09-06T00:29:33.892Z,96.76
2018-09-06T00:32:00.889Z,97.60
2018-09-06T00:34:27.992Z,97.74
2018-09-06T00:36:55.049Z,97.39
2018-09-06T00:39:22.161Z,97.47
2018-09-06T00:41:49.194Z,97.13
2018-09-06T00:44:16.203Z,96.80
2018-09-06T00:46:43.305Z,97.37
2018-09-06T00:49:10.297Z,96.35
2018-09-06T00:51:37.635Z,96.75
2018-09-06T00:54:04.643Z,96.66
2018-09-06T00:56:31.716Z,96.32
2018-09-06T00:58:58.763Z,96.61
2018-09-06T01:01:25.782Z,96.32
2018-09-06T01:03:52.767Z,96.38
2018-09-06T01:06:19.837Z,97.92
2018-09-06T01:08:46.943Z,97.74
2018-09-06T01:11:13.936Z,99.31
2018-09-06T01:13:40.944Z,98.41
2018-09-06T01:16:08.031Z,96.60
2018-09-06T01:18:42.602Z,96.89
2018-09-06T01:21:09.673Z,98.22
2018-09-06T01:23:36.699Z,99.88
2018-09-06T01:26:03.716Z,98.62
2018-09-06T01:28:30.723Z,98.27
2018-09-06T01:30:57.800Z,98.46
2018-09-06T01:33:25.620Z,99.76
2018-09-06T01:35:58.403Z,99.41
2018-09-06T01:38:25.441Z,99.71
2018-09-06T01:40:52.636Z,99.61
2018-09-06T01:43:19.675Z,99.79
2018-09-06T01:45:46.764Z,100.00
2018-09-06T01:48:13.743Z,100.00
2018-09-06T01:50:40.772Z,99.97
2018-09-06T01:53:07.803Z,99.16
2018-09-06T01:55:35.043Z,100.00
2018-09-06T01:58:02.028Z,100.00
2018-09-06T02:00:29.026Z,100.00
2018-09-06T02:02:56.036Z,100.00
2018-09-06T02:05:28.702Z,100.00
2018-09-06T02:07:55.688Z,100.00
2018-09-06T02:10:22.696Z,100.00
2018-09-06T02:12:49.703Z,100.00
2018-09-06T02:15:17.636Z,100.00
2018-09-06T02:17:44.689Z,100.00
2018-09-06T02:20:11.856Z,100.00
2018-09-06T02:22:39.428Z,100.00
2018-09-06T02:25:06.472Z,100.00
2018-09-06T02:27:33.479Z,100.00
2018-09-06T02:30:00.772Z,100.00
2018-09-06T02:32:27.757Z,100.00
2018-09-06T02:34:54.743Z,100.00
2018-09-06T02:37:21.832Z,100.00
2018-09-06T02:39:48.911Z,100.00
2018-09-06T02:42:15.903Z,100.00
2018-09-06T02:44:43.161Z,100.00
2018-09-06T02:47:10.161Z,100.00
2018-09-06T02:49:42.830Z,100.00
2018-09-06T02:52:09.847Z,100.00
2018-09-06T02:54:36.949Z,100.00
2018-09-06T02:57:04.033Z,100.00
2018-09-06T02:59:31.343Z,100.00
2018-09-06T03:01:58.345Z,100.00
2018-09-06T03:04:25.475Z,100.00
2018-09-06T03:06:52.730Z,100.00
2018-09-06T03:09:21.333Z,100.00
2018-09-06T03:11:48.635Z,100.00
2018-09-06T03:14:15.678Z,100.00
2018-09-06T03:16:42.712Z,100.00
2018-09-06T03:19:09.727Z,100.00
2018-09-06T03:21:37.059Z,100.00
2018-09-06T03:24:04.036Z,100.00
2018-09-06T03:26:31.076Z,100.00
2018-09-06T03:28:58.082Z,100.00
2018-09-06T03:31:25.168Z,100.00
2018-09-06T03:33:52.143Z,100.00
2018-09-06T03:36:19.275Z,100.00
2018-09-06T03:38:46.248Z,100.00
2018-09-06T03:41:13.235Z,100.00
2018-09-06T03:43:41.201Z,100.00
2018-09-06T03:46:08.800Z,100.00
2018-09-06T03:48:36.031Z,100.00
2018-09-06T03:51:03.344Z,100.00
2018-09-06T03:53:30.322Z,100.00
2018-09-06T03:55:57.301Z,100.00
2018-09-06T03:58:24.429Z,100.00
2018-09-06T04:00:51.422Z,100.00
2018-09-06T04:03:18.419Z,100.00
2018-09-06T04:05:45.849Z,100.00
2018-09-06T04:08:12.907Z,100.00
2018-09-06T04:10:40.253Z,100.00
2018-09-06T04:13:07.417Z,100.00
2018-09-06T04:15:34.420Z,100.00
2018-09-06T04:18:01.707Z,100.00
2018-09-06T04:20:29.889Z,100.00
2018-09-06T04:22:56.868Z,100.00
2018-09-06T04:25:23.939Z,100.00
2018-09-06T04:27:51.064Z,100.00
2018-09-06T04:30:18.068Z,100.00
2018-09-06T04:32:45.216Z,100.00
2018-09-06T04:35:12.672Z,100.00
2018-09-06T04:37:39.951Z,100.00
2018-09-06T04:40:07.405Z,100.00
2018-09-06T04:42:34.620Z,100.00
2018-09-06T04:45:01.799Z,100.00
2018-09-06T04:47:29.079Z,100.00
2018-09-06T04:49:56.063Z,100.00
2018-09-06T04:52:23.374Z,100.00
2018-09-06T04:54:50.928Z,100.00
2018-09-06T04:57:17.918Z,100.00
2018-09-06T04:59:44.891Z,100.00
2018-09-06T05:02:12.196Z,100.00
2018-09-06T05:04:39.268Z,100.00
2018-09-06T05:07:06.271Z,100.00
2018-09-06T05:09:33.608Z,100.00
2018-09-06T05:12:00.668Z,100.00
2018-09-06T05:14:27.820Z,100.00
2018-09-06T05:16:54.918Z,100.00
2018-09-06T05:19:22.159Z,100.00
2018-09-06T05:21:49.182Z,100.00
2018-09-06T05:24:16.172Z,100.00
2018-09-06T05:26:43.159Z,100.00
2018-09-06T05:29:10.235Z,100.00
2018-09-06T05:31:37.213Z,100.00
2018-09-06T05:34:04.199Z,100.00
2018-09-06T05:36:31.349Z,100.00
2018-09-06T05:38:58.284Z,100.00
2018-09-06T05:41:25.277Z,100.00
2018-09-06T05:43:52.254Z,100.00
2018-09-06T05:46:19.803Z,100.00
2018-09-06T05:48:46.819Z,100.00
2018-09-06T05:51:14.080Z,100.00
2018-09-06T05:53:41.048Z,100.00
2018-09-06T05:56:08.032Z,100.00
2018-09-06T05:58:35.079Z,100.00
2018-09-06T06:01:02.103Z,100.00
2018-09-06T06:03:29.172Z,100.00
2018-09-06T06:05:56.167Z,100.00
2018-09-06T06:08:35.035Z,100.00
2018-09-06T06:11:02.137Z,100.00
2018-09-06T06:13:29.221Z,100.00
2018-09-06T06:15:56.261Z,100.00
2018-09-06T06:18:23.218Z,100.00
2018-09-06T06:20:50.295Z,100.00
2018-09-06T06:23:17.311Z,100.00
2018-09-06T06:25:44.303Z,100.00
2018-09-06T06:28:11.292Z,100.00
2018-09-06T06:30:38.296Z,100.00
2018-09-06T06:33:05.312Z,100.00
2018-09-06T06:35:32.311Z,100.00
2018-09-06T06:37:59.351Z,100.00
2018-09-06T06:40:26.468Z,100.00
2018-09-06T06:42:53.544Z,100.00
2018-09-06T06:45:20.680Z,100.00
2018-09-06T06:47:47.801Z,100.00
2018-09-06T06:50:14.859Z,100.00
2018-09-06T06:52:42.169Z,100.00
2018-09-06T06:55:09.408Z,100.00
2018-09-06T06:57:36.387Z,100.00
2018-09-06T07:00:03.873Z,100.00
2018-09-06T07:02:30.961Z,100.00
2018-09-06T07:04:58.050Z,100.00
2018-09-06T07:07:25.167Z,100.00
2018-09-06T07:09:53.177Z,100.00
2018-09-06T07:12:20.273Z,100.00
2018-09-06T07:14:47.343Z,100.00
2018-09-06T07:17:14.423Z,100.00
2018-09-06T07:19:41.491Z,100.00
2018-09-06T07:22:08.491Z,100.00
2018-09-06T07:24:35.621Z,100.00
2018-09-06T07:27:02.701Z,100.00
2018-09-06T07:29:29.696Z,100.00
2018-09-06T07:31:56.713Z,100.00
2018-09-06T07:34:23.781Z,100.00
2018-09-06T07:36:50.773Z,100.00
2018-09-06T07:39:17.827Z,100.00
2018-09-06T07:41:44.824Z,100.00
2018-09-06T07:44:11.904Z,100.00
2018-09-06T07:46:39.267Z,100.00
2018-09-06T07:49:06.240Z,100.00
2018-09-06T07:51:33.671Z,100.00
2018-09-06T07:54:00.895Z,100.00
2018-09-06T07:56:27.883Z,100.00
2018-09-06T07:58:54.943Z,100.00
2018-09-06T08:01:22.604Z,100.00
2018-09-06T08:03:50.215Z,99.43
2018-09-06T08:06:17.227Z,99.25
2018-09-06T08:08:44.329Z,99.39
2018-09-06T08:11:11.568Z,99.26
2018-09-06T08:13:38.599Z,98.64
2018-09-06T08:16:05.615Z,97.35
2018-09-06T08:18:32.661Z,96.88
2018-09-06T08:21:00.241Z,97.07
2018-09-06T08:23:27.367Z,96.16
2018-09-06T08:25:54.504Z,95.57
2018-09-06T08:28:21.591Z,95.10
2018-09-06T08:30:48.668Z,95.01
2018-09-06T08:33:15.615Z,94.92
2018-09-06T08:35:42.627Z,94.46
2018-09-06T08:38:09.732Z,93.96
2018-09-06T08:40:36.980Z,93.85
2018-09-06T08:43:03.987Z,93.28
2018-09-06T08:45:31.431Z,92.49
2018-09-06T08:47:58.387Z,92.65
2018-09-06T08:50:25.742Z,92.31
2018-09-06T08:52:52.972Z,91.98
2018-09-06T08:55:19.952Z,91.53
2018-09-06T08:57:47.199Z,90.83
2018-09-06T09:00:14.175Z,90.58
2018-09-06T09:02:41.262Z,89.59
2018-09-06T09:05:08.176Z,89.82
2018-09-06T09:07:35.727Z,88.64
2018-09-06T09:10:02.968Z,87.93
2018-09-06T09:12:30.196Z,88.09
2018-09-06T09:14:57.252Z,86.91
2018-09-06T09:17:24.357Z,87.23
2018-09-06T09:19:51.360Z,86.47
2018-09-06T09:22:18.477Z,86.29
2018-09-06T09:24:45.603Z,86.31
2018-09-06T09:27:12.627Z,85.20
2018-09-06T09:29:39.648Z,85.02
2018-09-06T09:32:06.972Z,84.28
2018-09-06T09:34:34.055Z,84.47
2018-09-06T09:37:01.048Z,83.39
2018-09-06T09:39:28.375Z,83.19
2018-09-06T09:41:55.359Z,83.70
2018-09-06T09:44:22.352Z,81.96
2018-09-06T09:49:16.127Z,79.64
2018-09-06T09:51:43.254Z,79.70
2018-09-06T09:54:10.338Z,79.08
2018-09-06T09:56:37.503Z,78.84
2018-09-06T09:59:05.248Z,78.20
2018-09-06T10:01:37.976Z,77.53
2018-09-06T10:04:10.707Z,77.11
2018-09-06T10:06:43.973Z,77.46
2018-09-06T10:09:17.387Z,77.11
2018-09-06T10:11:44.540Z,75.98
2018-09-06T10:14:11.583Z,74.78
2018-09-06T10:16:38.591Z,74.30
2018-09-06T10:19:05.633Z,74.26
2018-09-06T10:21:32.640Z,73.85
2018-09-06T10:23:59.895Z,74.06
2018-09-06T10:26:26.947Z,73.00
2018-09-06T10:28:53.945Z,72.48
2018-09-06T10:31:21.219Z,72.03
2018-09-06T10:33:48.232Z,72.50
2018-09-06T10:36:15.284Z,71.71
2018-09-06T10:38:42.281Z,70.85
2018-09-06T10:41:09.413Z,71.06
2018-09-06T10:43:36.855Z,70.87
2018-09-06T10:46:03.876Z,69.48
2018-09-06T10:48:30.946Z,69.15
2018-09-06T10:50:58.320Z,69.25
2018-09-06T10:53:25.347Z,67.87
2018-09-06T10:55:53.354Z,67.09
2018-09-06T10:58:20.482Z,68.27
2018-09-06T11:00:47.590Z,66.81
2018-09-06T11:03:14.596Z,66.02
2018-09-06T11:05:41.600Z,66.55
2018-09-06T11:08:08.794Z,66.53
2018-09-06T11:10:35.645Z,65.81
2018-09-06T11:13:02.834Z,64.92
2018-09-06T11:15:29.834Z,65.32
2018-09-06T11:17:56.908Z,65.85
2018-09-06T11:20:24.295Z,66.13
2018-09-06T11:22:51.447Z,65.20
2018-09-06T11:25:18.604Z,64.61
2018-09-06T11:27:45.634Z,63.57
2018-09-06T11:30:12.589Z,62.11
2018-09-06T11:32:39.941Z,63.12
2018-09-06T11:35:06.950Z,63.22
2018-09-06T11:37:33.960Z,63.30
2018-09-06T11:40:01.031Z,63.20
2018-09-06T11:42:28.048Z,63.23
2018-09-06T11:44:55.067Z,63.26
2018-09-06T11:47:22.233Z,61.96
2018-09-06T11:49:49.239Z,61.94
2018-09-06T11:52:16.336Z,60.67
2018-09-06T11:54:43.339Z,60.62
2018-09-06T11:57:10.344Z,60.38
2018-09-06T11:59:37.440Z,60.37
2018-09-06T12:02:04.684Z,60.44
2018-09-06T12:04:32.008Z,59.29
2018-09-06T12:06:59.312Z,58.48
2018-09-06T12:09:26.329Z,57.95
2018-09-06T12:11:53.618Z,57.81
2018-09-06T12:14:20.653Z,58.50
2018-09-06T12:16:47.750Z,57.16
2018-09-06T12:19:15.182Z,57.06
2018-09-06T12:21:42.168Z,55.43
2018-09-06T12:24:09.386Z,56.24
2018-09-06T12:26:36.535Z,56.76
2018-09-06T12:29:03.845Z,57.20
2018-09-06T12:31:30.955Z,56.14
2018-09-06T12:33:58.083Z,57.68
2018-09-06T12:36:25.207Z,57.33
2018-09-06T12:38:52.204Z,57.21
2018-09-06T12:41:19.481Z,56.55
2018-09-06T12:43:46.506Z,55.03
2018-09-06T12:46:13.508Z,53.97
2018-09-06T12:48:41.111Z,53.20
2018-09-06T12:51:08.107Z,52.22
2018-09-06T12:53:35.111Z,52.28
2018-09-06T12:56:02.087Z,51.50
2018-09-06T12:58:29.095Z,50.36
2018-09-06T13:00:56.092Z,49.76
2018-09-06T13:03:23.550Z,50.84
2018-09-06T13:05:51.240Z,51.04
2018-09-06T13:08:18.259Z,51.87
2018-09-06T13:10:45.344Z,53.15
2018-09-06T13:13:12.915Z,52.43
2018-09-06T13:15:39.906Z,50.30
2018-09-06T13:18:06.899Z,49.73
2018-09-06T13:20:34.023Z,51.14
2018-09-06T13:23:01.672Z,51.12
2018-09-06T13:25:29.039Z,51.23
2018-09-06T13:27:56.004Z,50.90
2018-09-06T13:30:23.096Z,50.15
2018-09-06T13:32:50.418Z,49.21
2018-09-06T13:35:17.454Z,47.82
2018-09-06T13:37:44.600Z,47.02
2018-09-06T13:40:11.588Z,46.77
2018-09-06T13:42:38.694Z,48.17
2018-09-06T13:45:05.732Z,47.25
2018-09-06T13:47:33.067Z,46.96
2018-09-06T13:50:00.056Z,46.13
2018-09-06T13:52:27.704Z,45.53
2018-09-06T13:54:55.192Z,45.16
2018-09-06T13:57:22.175Z,44.23
2018-09-06T13:59:49.208Z,45.21
2018-09-06T14:02:16.265Z,44.57
2018-09-06T14:04:43.256Z,45.06
2018-09-06T14:07:10.573Z,44.66
2018-09-06T14:09:37.620Z,45.29
2018-09-06T14:12:05.675Z,45.48
2018-09-06T14:14:32.755Z,45.07
2018-09-06T14:16:59.782Z,45.12
2018-09-06T14:19:27.184Z,45.09
2018-09-06T14:21:54.215Z,45.41
2018-09-06T14:24:21.209Z,46.24
2018-09-06T14:26:49.359Z,45.86
2018-09-06T14:29:16.464Z,46.13
2018-09-06T14:31:43.787Z,47.48
2018-09-06T14:34:10.851Z,46.64
2018-09-06T14:36:38.235Z,46.90
2018-09-06T14:39:06.419Z,46.44
2018-09-06T14:41:33.567Z,46.14
2018-09-06T14:44:00.631Z,46.14
2018-09-06T14:46:27.591Z,46.69
2018-09-06T14:48:54.568Z,46.05
2018-09-06T14:51:21.559Z,47.10
2018-09-06T14:53:48.567Z,46.74
2018-09-06T14:56:15.675Z,48.31
2018-09-06T14:58:42.765Z,48.62
2018-09-06T15:01:09.776Z,48.33
2018-09-06T15:03:36.781Z,48.35
2018-09-06T15:06:03.890Z,48.37
2018-09-06T15:08:30.891Z,49.30
2018-09-06T15:10:57.885Z,48.58
2018-09-06T15:13:24.868Z,48.30
2018-09-06T15:15:52.333Z,49.13
2018-09-06T15:18:19.340Z,48.90
2018-09-06T15:20:46.379Z,49.01
2018-09-06T15:23:13.438Z,48.46
2018-09-06T15:25:40.383Z,48.87
2018-09-06T15:28:07.371Z,48.33
2018-09-06T15:30:34.469Z,47.88
2018-09-06T15:33:01.720Z,48.31
2018-09-06T15:35:28.809Z,48.03
2018-09-06T15:37:56.220Z,48.31
2018-09-06T15:40:23.691Z,48.77
2018-09-06T15:42:51.935Z,48.39
2018-09-06T15:45:18.999Z,49.24
2018-09-06T15:47:46.104Z,48.82
2018-09-06T15:50:13.087Z,49.77
2018-09-06T15:52:40.249Z,47.77
2018-09-06T15:55:07.268Z,48.96
2018-09-06T15:57:34.552Z,48.63
2018-09-06T16:00:01.700Z,49.68
2018-09-06T16:02:28.882Z,49.03
2018-09-06T16:04:55.963Z,48.68
2018-09-06T16:07:23.039Z,48.63
2018-09-06T16:09:50.112Z,48.53
2018-09-06T16:12:17.276Z,48.22
2018-09-06T16:14:44.572Z,48.09
2018-09-06T16:17:11.819Z,48.51
2018-09-06T16:19:39.154Z,49.63
2018-09-06T16:22:06.281Z,49.41
2018-09-06T16:24:33.405Z,49.96
2018-09-06T16:27:00.404Z,51.08
2018-09-06T16:29:27.507Z,51.03
2018-09-06T16:31:54.472Z,51.17
2018-09-06T16:34:21.499Z,52.24
2018-09-06T16:36:48.527Z,52.07
2018-09-06T16:39:15.493Z,51.64
2018-09-06T16:41:42.468Z,51.63
2018-09-06T16:44:09.709Z,51.24
2018-09-06T16:46:36.923Z,51.87
2018-09-06T16:49:03.952Z,51.60
2018-09-06T16:51:31.224Z,51.63
2018-09-06T16:53:58.224Z,52.32
2018-09-06T16:56:25.287Z,51.87
2018-09-06T16:58:53.390Z,52.57
2018-09-06T17:01:21.549Z,51.89
2018-09-06T17:03:48.672Z,52.66
2018-09-06T17:06:15.967Z,51.82
2018-09-06T17:08:42.931Z,52.41
2018-09-06T17:11:09.934Z,53.07
2018-09-06T17:13:36.909Z,52.56
2018-09-06T17:16:04.005Z,52.91
2018-09-06T17:18:31.008Z,52.68
2018-09-06T17:20:58.012Z,54.20
2018-09-06T17:23:25.007Z,53.50
2018-09-06T17:25:52.012Z,54.48
2018-09-06T17:28:19.314Z,54.58
2018-09-06T17:30:46.476Z,55.41
2018-09-06T17:33:13.520Z,56.02
2018-09-06T17:35:40.688Z,56.66
2018-09-06T17:38:07.691Z,57.07
2018-09-06T17:40:34.927Z,57.35
2018-09-06T17:43:02.007Z,57.79
2018-09-06T17:45:29.020Z,57.88
2018-09-06T17:47:56.000Z,58.14
2018-09-06T17:50:23.284Z,57.84
2018-09-06T17:52:50.442Z,58.71
2018-09-06T17:55:17.463Z,59.15
2018-09-06T17:57:44.540Z,59.09
2018-09-06T18:00:11.682Z,58.70
2018-09-06T18:02:38.674Z,59.23
2018-09-06T18:05:05.708Z,61.09
2018-09-06T18:07:32.799Z,63.70
2018-09-06T18:09:59.871Z,65.33
2018-09-06T18:12:26.892Z,66.73
2018-09-06T18:14:53.875Z,68.68
2018-09-06T18:17:20.887Z,70.23
2018-09-06T18:19:47.948Z,70.35
2018-09-06T18:22:15.014Z,70.65
2018-09-06T18:24:42.500Z,71.09
2018-09-06T18:27:09.588Z,71.79
2018-09-06T18:29:36.567Z,71.43
2018-09-06T18:32:03.853Z,71.87
2018-09-06T18:34:30.850Z,73.35
2018-09-06T18:36:57.814Z,73.67
2018-09-06T18:39:24.861Z,74.50
2018-09-06T18:41:51.822Z,74.71
2018-09-06T18:44:18.896Z,75.22
2018-09-06T18:46:46.228Z,75.62
2018-09-06T18:49:13.213Z,76.09
2018-09-06T18:51:40.252Z,75.75
2018-09-06T18:54:07.786Z,76.54
2018-09-06T18:56:34.809Z,76.71
2018-09-06T18:59:01.913Z,76.63
2018-09-06T19:01:29.000Z,76.87
2018-09-06T19:03:56.056Z,78.33
2018-09-06T19:06:23.111Z,77.71
2018-09-06T19:08:50.678Z,78.02
2018-09-06T19:11:17.975Z,78.14
2018-09-06T19:13:45.040Z,79.09
2018-09-06T19:16:12.024Z,79.78
2018-09-06T19:18:39.151Z,79.82
2018-09-06T19:21:06.144Z,80.55
2018-09-06T19:23:33.150Z,80.85
2018-09-06T19:26:00.316Z,81.41
2018-09-06T19:28:27.284Z,82.05
2018-09-06T19:30:54.279Z,81.55
2018-09-06T19:33:21.247Z,81.84
2018-09-06T19:35:48.248Z,82.22
2018-09-06T19:38:15.292Z,82.44
2018-09-06T19:40:42.390Z,82.30
2018-09-06T19:43:09.547Z,83.93
2018-09-06T19:45:36.613Z,83.80
2018-09-06T19:48:03.616Z,84.00
2018-09-06T19:50:30.628Z,84.42
2018-09-06T19:52:57.612Z,84.86
2018-09-06T19:55:24.686Z,84.43
2018-09-06T19:57:51.754Z,84.30
2018-09-06T20:00:18.867Z,83.71
2018-09-06T20:02:45.872Z,84.13
2018-09-06T20:05:12.888Z,84.65
2018-09-06T20:07:39.961Z,85.53
2018-09-06T20:10:07.057Z,86.07
2018-09-06T20:12:34.301Z,86.85
2018-09-06T20:15:01.296Z,88.52
2018-09-06T20:17:28.803Z,88.98
2018-09-06T20:19:55.783Z,88.87
2018-09-06T20:22:22.760Z,88.42
2018-09-06T20:24:49.751Z,89.09
2018-09-06T20:27:16.794Z,89.92
2018-09-06T20:29:43.768Z,89.62
2018-09-06T20:32:10.870Z,90.12
2018-09-06T20:34:37.832Z,90.68
2018-09-06T20:37:04.852Z,91.93
2018-09-06T20:39:31.927Z,91.65
2018-09-06T20:41:59.029Z,92.49
2018-09-06T20:44:25.999Z,91.69
2018-09-06T20:46:52.991Z,91.23
2018-09-06T20:49:19.988Z,90.84
2018-09-06T20:51:46.994Z,91.56
2018-09-06T20:54:14.011Z,91.92
2018-09-06T20:56:40.993Z,91.80
2018-09-06T20:59:08.099Z,91.91
2018-09-06T21:01:35.328Z,93.56
2018-09-06T21:04:02.424Z,94.26
2018-09-06T21:06:29.401Z,94.88
2018-09-06T21:08:56.496Z,95.51
2018-09-06T21:11:23.873Z,94.94
2018-09-06T21:13:50.859Z,94.13
2018-09-06T21:16:17.928Z,95.71
2018-09-06T21:18:44.902Z,97.02
2018-09-06T21:21:11.889Z,97.28
2018-09-06T21:23:45.936Z,97.47
2018-09-06T21:26:13.007Z,98.10
2018-09-06T21:28:39.963Z,99.52
2018-09-06T21:31:07.040Z,100.00
2018-09-06T21:33:34.011Z,99.77
2018-09-06T21:36:01.078Z,100.00
2018-09-06T21:38:28.053Z,100.00
2018-09-06T21:40:55.247Z,100.00
2018-09-06T21:43:22.243Z,100.00
2018-09-06T21:45:49.204Z,100.00
2018-09-06T21:48:16.281Z,100.00
2018-09-06T21:50:43.261Z,100.00
2018-09-06T21:53:10.318Z,100.00
2018-09-06T21:55:37.511Z,100.00
2018-09-06T21:58:04.575Z,100.00
2018-09-06T22:00:31.880Z,100.00
2018-09-06T22:03:04.552Z,100.00
2018-09-06T22:05:31.653Z,100.00
2018-09-06T22:07:58.797Z,100.00
2018-09-06T22:10:25.789Z,100.00
2018-09-06T22:12:52.955Z,100.00
2018-09-06T22:15:20.202Z,100.00
2018-09-06T22:17:47.253Z,100.00
2018-09-06T22:20:14.247Z,100.00
2018-09-06T22:22:41.316Z,100.00
2018-09-06T22:25:08.431Z,100.00
2018-09-06T22:27:35.496Z,100.00
2018-09-06T22:30:02.687Z,100.00
2018-09-06T22:32:29.676Z,100.00
2018-09-06T22:34:56.688Z,100.00
2018-09-06T22:37:23.715Z,100.00
2018-09-06T22:39:50.786Z,100.00
2018-09-06T22:42:17.783Z,100.00
2018-09-06T22:44:45.063Z,100.00
2018-09-06T22:47:12.034Z,100.00
2018-09-06T22:49:39.051Z,100.00
2018-09-06T22:52:06.160Z,100.00
2018-09-06T22:54:33.119Z,100.00
2018-09-06T22:57:00.502Z,100.00
2018-09-06T22:59:27.685Z,100.00
2018-09-06T23:01:56.336Z,100.00
2018-09-06T23:04:23.422Z,100.00
2018-09-06T23:06:50.531Z,100.00
2018-09-06T23:09:17.604Z,100.00
2018-09-06T23:11:44.667Z,100.00
2018-09-06T23:14:11.882Z,100.00
2018-09-06T23:16:38.959Z,100.00
2018-09-06T23:19:05.945Z,100.00
2018-09-06T23:21:32.992Z,100.00
2018-09-06T23:23:59.974Z,100.00
2018-09-06T23:26:27.034Z,100.00
2018-09-06T23:28:54.140Z,100.00
2018-09-06T23:31:21.142Z,100.00
2018-09-06T23:33:48.136Z,100.00
2018-09-06T23:36:15.163Z,100.00
2018-09-06T23:38:42.660Z,100.00
2018-09-06T23:41:09.643Z,100.00
2018-09-06T23:43:36.655Z,100.00
2018-09-06T23:46:03.698Z,100.00
2018-09-06T23:48:30.711Z,100.00
2018-09-06T23:50:58.103Z,100.00
2018-09-06T23:53:26.271Z,100.00
2018-09-06T23:55:53.935Z,100.00
2018-09-06T23:58:20.958Z,100.00
